Time;durP1;ratioP1;P1;durP2;ratioP2;P2;SDS_P1;SDS_P2;PMS_P1;PMS_P2;Temp;Humidity;BMP_temperature;BMP_pressure;BME280_temperature;BME280_humidity;BME280_pressure;Samples;Min_cycle;Max_cycle;Signal;HPM_P1;HPM_P2
2021/05/18 00:00:24;;;;;;;15.98;11.78;;;;;;;13.80;100.00;97703.38;1870682;76;22141;-66
2021/05/18 00:03:05;;;;;;;17.15;11.83;;;;;;;13.79;100.00;97709.44;1857697;77;22132;-65
2021/05/18 00:05:55;;;;;;;22.60;13.75;;;;;;;13.76;100.00;97728.95;1890177;76;22175;-67
2021/05/18 00:08:33;;;;;;;23.38;14.10;;;;;;;13.71;100.00;97713.94;1870626;76;22242;-62
2021/05/18 00:14:25;;;;;;;18.12;13.58;;;;;;;13.66;100.00;97708.44;1890105;76;22187;-66
2021/05/18 00:17:03;;;;;;;15.45;12.93;;;;;;;13.65;100.00;97714.94;1964394;73;22554;-65
2021/05/18 00:19:39;;;;;;;15.43;12.18;;;;;;;13.64;100.00;97713.24;1889910;76;22269;-65
2021/05/18 00:22:22;;;;;;;16.12;11.03;;;;;;;13.64;100.00;97708.91;1870131;76;22162;-67
2021/05/18 00:24:58;;;;;;;15.68;11.00;;;;;;;13.68;100.00;97698.01;1946811;73;22108;-64
2021/05/18 00:27:53;;;;;;;12.68;9.45;;;;;;;13.73;100.00;97701.36;1864026;75;27888;-63
2021/05/18 00:30:30;;;;;;;22.90;11.65;;;;;;;13.80;100.00;97694.30;1870465;76;20212;-61
2021/05/18 00:33:20;;;;;;;26.97;13.50;;;;;;;13.85;100.00;97692.46;1870520;76;22535;-65
2021/05/18 00:35:54;;;;;;;20.82;13.72;;;;;;;13.87;100.00;97692.84;1889947;76;22602;-62
2021/05/18 00:38:30;;;;;;;21.10;14.10;;;;;;;13.86;100.00;97693.70;1870576;76;22140;-63
2021/05/18 00:41:06;;;;;;;19.40;14.35;;;;;;;13.83;100.00;97695.53;1870789;76;22133;-65
2021/05/18 00:43:50;;;;;;;19.55;16.27;;;;;;;13.79;100.00;97693.88;1890261;76;22193;-66
2021/05/18 00:46:30;;;;;;;20.05;15.72;;;;;;;13.74;100.00;97699.19;1870302;76;22169;-68
2021/05/18 00:49:06;;;;;;;15.48;13.15;;;;;;;13.71;100.00;97703.57;1835089;77;22160;-66
2021/05/18 00:51:42;;;;;;;24.20;14.23;;;;;;;13.68;100.00;97691.08;1964379;73;22092;-69
2021/05/18 00:54:23;;;;;;;18.35;12.58;;;;;;;13.71;100.00;97685.42;1889942;76;22194;-69
2021/05/18 00:59:48;;;;;;;17.67;13.88;;;;;;;13.71;100.00;97682.38;1870653;76;22137;-66
2021/05/18 01:02:33;;;;;;;20.17;15.05;;;;;;;13.67;100.00;97682.91;1827708;77;21549;-62
2021/05/18 01:05:17;;;;;;;20.00;15.48;;;;;;;13.72;100.00;97679.38;1870658;76;22145;-63
2021/05/18 01:07:48;;;;;;;17.20;13.45;;;;;;;13.70;100.00;97679.39;1870504;76;22234;-64
2021/05/18 01:10:23;;;;;;;19.55;15.28;;;;;;;13.67;100.00;97679.02;1870694;76;22174;-64
2021/05/18 01:12:58;;;;;;;21.55;15.28;;;;;;;13.66;100.00;97683.80;1889984;76;22591;-62
2021/05/18 01:15:33;;;;;;;18.40;14.23;;;;;;;13.65;100.00;97678.64;1870660;76;22520;-63
2021/05/18 01:18:11;;;;;;;20.17;15.55;;;;;;;13.62;100.00;97681.31;1889889;76;22579;-64
2021/05/18 01:20:58;;;;;;;23.55;17.70;;;;;;;13.60;100.00;97672.70;1854655;76;27921;-63
2021/05/18 01:23:35;;;;;;;22.58;17.42;;;;;;;13.61;100.00;97679.16;1870426;76;22193;-61
2021/05/18 01:26:16;;;;;;;23.40;18.27;;;;;;;13.56;100.00;97686.61;1870440;76;22588;-64
2021/05/18 01:28:52;;;;;;;18.67;15.90;;;;;;;13.49;100.00;97675.54;1889929;76;22132;-62
2021/05/18 01:31:27;;;;;;;22.32;15.60;;;;;;;13.42;100.00;97677.84;1870678;76;22149;-63
2021/05/18 01:34:04;;;;;;;22.00;16.35;;;;;;;13.34;100.00;97673.27;1870418;76;22181;-62
2021/05/18 01:36:41;;;;;;;20.35;14.68;;;;;;;13.28;100.00;97672.96;1889849;76;22116;-64
2021/05/18 01:44:53;;;;;;;18.42;14.83;;;;;;;13.13;100.00;97670.66;1870428;76;22164;-63
2021/05/18 01:47:28;;;;;;;19.85;13.55;;;;;;;13.09;100.00;97672.88;1889974;76;22132;-62
2021/05/18 01:50:16;;;;;;;13.85;11.83;;;;;;;13.02;100.00;97665.66;1791500;80;21233;-63
2021/05/18 01:52:58;;;;;;;15.45;12.73;;;;;;;13.06;100.00;97653.08;1890011;76;22188;-61
2021/05/18 01:58:14;;;;;;;15.32;10.15;;;;;;;13.12;100.00;97647.75;1889878;76;22147;-62
2021/05/18 02:00:50;;;;;;;13.65;10.25;;;;;;;13.19;100.00;97648.05;1889933;76;22135;-62
2021/05/18 02:03:45;;;;;;;11.40;9.13;;;;;;;13.24;100.00;97647.51;1870535;75;22193;-62
2021/05/18 02:06:20;;;;;;;13.20;10.50;;;;;;;13.24;100.00;97651.39;1870528;76;20125;-61
2021/05/18 02:08:57;;;;;;;14.87;11.33;;;;;;;13.25;100.00;97644.05;1870645;76;22220;-64
2021/05/18 02:11:32;;;;;;;16.77;12.23;;;;;;;13.24;100.00;97642.33;1870637;76;22519;-69
2021/05/18 02:14:15;;;;;;;15.23;11.80;;;;;;;13.22;100.00;97645.39;1889908;76;22143;-64
2021/05/18 02:16:47;;;;;;;13.83;11.68;;;;;;;13.22;100.00;97640.20;1946885;73;22121;-63
2021/05/18 02:25:35;;;;;;;11.73;10.23;;;;;;;13.32;100.00;97628.39;1867520;76;22572;-64
2021/05/18 02:28:19;;;;;;;15.00;10.75;;;;;;;13.33;100.00;97630.09;1870129;76;22576;-65
2021/05/18 02:31:10;;;;;;;10.93;8.80;;;;;;;13.30;100.00;97629.71;1827866;77;21107;-69
2021/05/18 02:33:50;;;;;;;12.78;9.38;;;;;;;13.38;100.00;97632.14;1870637;76;22129;-64
2021/05/18 02:36:27;;;;;;;12.10;9.58;;;;;;;13.45;100.00;97631.13;1889906;76;22188;-63
2021/05/18 02:39:05;;;;;;;11.63;8.73;;;;;;;13.53;100.00;97630.95;1870459;76;22557;-64
2021/05/18 02:41:40;;;;;;;12.20;9.10;;;;;;;13.58;100.00;97633.00;1870640;76;22117;-63
2021/05/18 02:50:04;;;;;;;15.83;12.85;;;;;;;13.63;100.00;97638.48;1866668;76;22175;-62
2021/05/18 02:52:40;;;;;;;16.35;14.35;;;;;;;13.63;100.00;97643.66;1853500;76;22630;-66
2021/05/18 02:55:29;;;;;;;20.57;16.55;;;;;;;13.62;100.00;97644.56;1868411;76;22158;-64
2021/05/18 02:57:58;;;;;;;17.35;15.05;;;;;;;13.62;100.00;97651.05;1890110;76;22104;-70
2021/05/18 03:00:33;;;;;;;16.73;12.45;;;;;;;13.59;100.00;97649.83;1870627;76;22152;-63
2021/05/18 03:03:08;;;;;;;12.53;10.48;;;;;;;13.59;100.00;97655.01;1870662;76;22137;-66
2021/05/18 03:05:55;;;;;;;11.70;10.13;;;;;;;13.58;100.00;97649.39;1827891;78;21145;-69
2021/05/18 03:08:38;;;;;;;16.00;10.38;;;;;;;13.67;100.00;97653.09;1889901;76;22596;-61
2021/05/18 03:11:12;;;;;;;11.28;8.88;;;;;;;13.71;100.00;97653.02;1889928;76;22543;-66
2021/05/18 03:13:54;;;;;;;14.20;9.95;;;;;;;13.76;100.00;97661.54;1889917;76;22152;-66
2021/05/18 03:16:42;;;;;;;13.03;10.30;;;;;;;13.74;100.00;97672.38;1861221;77;21126;-66
2021/05/18 03:19:22;;;;;;;13.83;10.82;;;;;;;13.81;100.00;97671.36;1869769;76;22194;-62
2021/05/18 03:21:57;;;;;;;15.70;11.20;;;;;;;13.83;100.00;97668.30;1889997;76;22135;-64
2021/05/18 03:24:44;;;;;;;15.25;12.00;;;;;;;13.81;100.00;97668.77;1836161;77;21654;-66
2021/05/18 03:27:19;;;;;;;16.17;11.33;;;;;;;13.86;100.00;97667.77;1853228;76;22151;-67
2021/05/18 03:29:55;;;;;;;12.90;9.88;;;;;;;13.86;100.00;97668.22;1837747;76;28014;-68
2021/05/18 03:35:29;;;;;;;13.22;10.43;;;;;;;13.92;100.00;97672.41;1853317;76;22159;-68
2021/05/18 03:40:43;;;;;;;15.43;12.47;;;;;;;13.94;100.00;97674.08;1849206;76;20118;-67
2021/05/18 03:54:52;;;;;;;16.77;11.30;;;;;;;14.01;100.00;97674.80;1855448;76;22552;-65
2021/05/18 04:03:38;;;;;;;13.45;11.15;;;;;;;14.14;100.00;97683.98;1818268;77;22232;-65
2021/05/18 04:12:30;;;;;;;14.38;11.03;;;;;;;14.32;100.00;97682.27;1856846;76;22152;-67
2021/05/18 04:18:10;;;;;;;12.55;9.93;;;;;;;14.43;100.00;97682.45;1852963;76;22603;-67
2021/05/18 04:21:00;;;;;;;14.05;9.63;;;;;;;14.46;100.00;97688.85;1854892;76;22212;-70
2021/05/18 04:24:05;;;;;;;15.80;10.20;;;;;;;14.46;100.00;97689.70;1830702;78;21196;-66
2021/05/18 04:52:10;;;;;;;18.52;13.40;;;;;;;14.75;100.00;97708.89;1870471;76;22273;-66
2021/05/18 05:00:19;;;;;;;15.98;12.03;;;;;;;14.71;100.00;97698.20;1889885;76;22152;-66
2021/05/18 05:08:46;;;;;;;15.28;11.85;;;;;;;14.74;100.00;97687.73;1870569;76;22188;-65
2021/05/18 05:14:24;;;;;;;16.32;10.35;;;;;;;14.77;100.00;97688.94;1870591;76;22176;-64
2021/05/18 05:16:57;;;;;;;17.55;11.57;;;;;;;14.72;100.00;97689.51;1870562;76;22206;-66
2021/05/18 05:19:34;;;;;;;18.60;11.30;;;;;;;14.71;100.00;97694.30;1889851;76;22519;-65
2021/05/18 05:22:19;;;;;;;17.15;10.63;;;;;;;14.69;100.00;97689.59;1791371;80;21599;-65
2021/05/18 05:24:54;;;;;;;13.20;10.13;;;;;;;14.83;100.00;97679.67;1870605;76;22145;-65
2021/05/18 05:27:28;;;;;;;14.38;11.08;;;;;;;14.93;99.72;97677.27;1870596;76;22109;-64
2021/05/18 05:30:15;;;;;;;14.95;11.03;;;;;;;14.99;99.39;97674.94;1827732;78;21269;-65
2021/05/18 05:32:50;;;;;;;12.15;9.78;;;;;;;15.16;99.25;97668.83;1870635;76;22157;-66
2021/05/18 05:35:25;;;;;;;12.13;10.18;;;;;;;15.28;98.31;97666.77;1870647;76;22176;-65
2021/05/18 05:38:00;;;;;;;12.85;10.20;;;;;;;15.43;98.08;97658.52;1890013;76;22179;-65
2021/05/18 05:40:35;;;;;;;14.07;9.73;;;;;;;15.58;97.93;97665.02;1873797;76;28350;-64
2021/05/18 05:43:10;;;;;;;14.25;9.03;;;;;;;15.81;97.83;97672.99;1889932;76;22152;-63
2021/05/18 05:45:44;;;;;;;11.25;8.55;;;;;;;16.01;96.32;97659.37;1870635;76;22136;-64
2021/05/18 05:48:19;;;;;;;13.03;8.93;;;;;;;16.11;95.31;97662.98;1870537;76;22164;-65
2021/05/18 05:50:55;;;;;;;11.63;8.90;;;;;;;16.39;94.66;97665.53;1854590;76;27905;-65
2021/05/18 05:53:31;;;;;;;9.90;8.15;;;;;;;16.65;93.53;97665.49;1870449;76;22575;-66
2021/05/18 05:56:12;;;;;;;11.10;7.97;;;;;;;16.92;91.93;97677.21;1889883;76;22151;-66
2021/05/18 05:58:48;;;;;;;10.78;8.40;;;;;;;17.00;89.96;97672.57;1854502;76;27892;-65
2021/05/18 06:01:23;;;;;;;10.48;8.18;;;;;;;17.22;90.21;97667.88;1873880;76;27891;-65
2021/05/18 06:04:05;;;;;;;12.63;8.65;;;;;;;17.45;88.34;97666.55;1890016;76;22181;-66
2021/05/18 06:06:51;;;;;;;12.78;8.45;;;;;;;17.38;86.74;97677.27;1791484;80;21149;-66
2021/05/18 06:09:27;;;;;;;13.43;9.88;;;;;;;17.40;86.55;97672.40;1854578;76;27991;-65
2021/05/18 06:35:49;;;;;;;11.08;7.78;;;;;;;19.55;79.01;97665.30;1870741;76;22157;-65
2021/05/18 06:46:35;;;;;;;14.25;9.93;;;;;;;19.79;76.28;97664.64;1870541;76;22128;-65
2021/05/18 06:49:11;;;;;;;11.68;9.73;;;;;;;19.91;74.76;97671.45;1760559;80;21145;-64
2021/05/18 06:51:48;;;;;;;11.75;9.93;;;;;;;20.09;74.60;97663.17;1870701;76;22117;-66
2021/05/18 06:54:23;;;;;;;15.20;10.03;;;;;;;20.10;74.24;97658.81;1889910;76;22163;-65
2021/05/18 06:57:02;;;;;;;15.78;10.82;;;;;;;20.09;73.92;97663.64;1889940;76;22197;-66
2021/05/18 07:02:43;;;;;;;14.98;9.95;;;;;;;20.37;72.60;97665.29;1827803;78;21568;-69
2021/05/18 07:05:42;;;;;;;13.78;10.28;;;;;;;20.31;71.92;97660.84;1889888;76;22152;-65
2021/05/18 07:10:49;;;;;;;12.73;10.48;;;;;;;20.33;72.41;97659.84;1870648;76;22109;-66
2021/05/18 07:13:23;;;;;;;19.40;14.70;;;;;;;20.66;72.21;97655.61;1870626;76;22144;-64
2021/05/18 07:15:59;;;;;;;23.12;17.40;;;;;;;20.99;70.26;97656.99;1870427;76;20097;-64
2021/05/18 07:18:35;;;;;;;17.75;15.48;;;;;;;21.15;69.36;97651.78;1890003;76;22610;-67
2021/05/18 07:21:11;;;;;;;25.02;18.70;;;;;;;21.58;68.45;97656.07;1854793;76;28357;-67
2021/05/18 07:23:46;;;;;;;18.52;15.43;;;;;;;22.04;66.85;97655.66;1870611;76;22567;-65
2021/05/18 07:26:22;;;;;;;19.12;15.68;;;;;;;22.35;65.55;97654.42;1870431;76;22567;-64
2021/05/18 07:28:56;;;;;;;16.57;12.10;;;;;;;22.32;64.75;97656.28;1870635;76;22247;-64
2021/05/18 07:31:32;;;;;;;13.75;10.23;;;;;;;22.16;64.67;97662.45;1870642;76;22156;-65
2021/05/18 07:34:07;;;;;;;13.50;10.55;;;;;;;21.72;64.68;97654.83;1889867;76;22138;-64
2021/05/18 07:36:43;;;;;;;16.87;10.98;;;;;;;21.67;64.68;97656.86;1889952;76;20100;-66
2021/05/18 07:39:18;;;;;;;13.15;10.50;;;;;;;21.59;65.28;97658.59;1889995;76;22137;-68
2021/05/18 07:41:53;;;;;;;14.28;10.40;;;;;;;21.20;65.18;97658.94;1889913;76;22581;-65
2021/05/18 07:44:27;;;;;;;14.30;9.00;;;;;;;20.92;66.85;97660.38;1870830;76;22113;-66
2021/05/18 07:47:03;;;;;;;9.83;8.18;;;;;;;20.81;67.05;97657.02;1873813;76;27952;-66
2021/05/18 08:06:58;;;;;;;17.10;10.32;;;;;;;19.18;71.96;97670.41;1889879;76;22167;-65
2021/05/18 08:09:35;;;;;;;15.98;10.53;;;;;;;19.06;72.34;97669.21;1870644;76;22157;-65
2021/05/18 08:12:09;;;;;;;22.67;10.58;;;;;;;18.67;73.08;97669.13;1889876;76;22133;-65
2021/05/18 08:14:49;;;;;;;13.70;9.20;;;;;;;18.73;73.42;97678.49;1870823;76;22141;-65
2021/05/18 08:17:25;;;;;;;16.82;10.00;;;;;;;18.46;73.91;97680.48;1834993;77;22156;-65
2021/05/18 09:33:40;;;;;;;9.18;7.30;;;;;;;17.18;90.38;97615.47;1870489;75;22192;-66
2021/05/18 10:36:41;;;;;;;10.88;5.70;;;;;;;18.29;77.51;97569.72;1868990;76;22180;-67
2021/05/18 10:39:30;;;;;;;11.57;5.47;;;;;;;18.18;78.65;97567.56;1847876;76;22607;-65
2021/05/18 10:42:13;;;;;;;13.58;5.78;;;;;;;18.08;78.83;97574.55;1889720;76;22147;-67
2021/05/18 10:44:56;;;;;;;9.90;5.90;;;;;;;17.99;79.31;97585.77;1875081;76;22203;-69
2021/05/18 10:47:45;;;;;;;19.20;5.67;;;;;;;17.92;79.76;97577.79;1856008;76;22203;-69
2021/05/18 10:50:43;;;;;;;17.82;4.60;;;;;;;17.85;79.84;97581.55;1862643;76;22220;-69
2021/05/18 10:53:29;;;;;;;6.97;3.98;;;;;;;17.77;80.01;97573.16;1863843;75;22164;-68
2021/05/18 10:56:07;;;;;;;5.80;4.00;;;;;;;17.72;80.52;97575.11;1841874;76;22217;-63
2021/05/18 10:58:42;;;;;;;5.22;3.08;;;;;;;17.63;80.72;97567.64;1853561;76;22174;-63
2021/05/18 11:01:18;;;;;;;6.53;3.10;;;;;;;17.51;81.58;97556.79;1846404;76;28038;-63
2021/05/18 11:03:53;;;;;;;10.30;3.60;;;;;;;17.49;82.13;97561.21;1866723;76;22234;-64
2021/05/18 11:06:36;;;;;;;8.80;3.45;;;;;;;17.45;83.04;97555.71;1844741;76;22216;-65
2021/05/18 11:09:21;;;;;;;7.78;3.55;;;;;;;17.40;83.58;97556.34;1864015;76;22175;-65
2021/05/18 11:12:10;;;;;;;7.10;3.50;;;;;;;17.36;84.04;97552.17;1826593;77;22226;-64
2021/05/18 11:14:59;;;;;;;11.75;4.62;;;;;;;17.33;84.93;97545.79;1868624;75;22150;-69
2021/05/18 11:17:41;;;;;;;7.70;4.30;;;;;;;17.31;85.48;97537.17;1837096;76;22267;-65
2021/05/18 11:20:26;;;;;;;12.47;4.85;;;;;;;17.29;85.74;97544.20;1851391;76;22175;-66
2021/05/18 11:23:31;;;;;;;7.03;3.90;;;;;;;17.26;86.30;97533.43;1843801;76;22243;-62
2021/05/18 11:26:10;;;;;;;7.83;4.12;;;;;;;17.25;86.88;97532.17;1855581;76;22566;-62
2021/05/18 11:28:49;;;;;;;10.25;4.45;;;;;;;17.25;87.23;97542.60;1855442;76;22570;-61
2021/05/18 11:31:26;;;;;;;10.28;4.50;;;;;;;17.23;87.51;97545.75;1858953;76;22190;-63
2021/05/18 11:34:04;;;;;;;8.33;3.80;;;;;;;17.25;87.83;97539.99;1870462;76;22254;-62
2021/05/18 11:36:40;;;;;;;9.50;4.85;;;;;;;17.26;87.83;97533.43;1870415;76;22164;-65
2021/05/18 11:39:17;;;;;;;17.35;7.08;;;;;;;17.32;88.37;97529.73;1889825;76;22134;-64
2021/05/18 11:41:53;;;;;;;12.35;5.70;;;;;;;17.40;88.56;97527.66;1841822;76;22219;-64
2021/05/18 11:44:41;;;;;;;15.88;6.05;;;;;;;17.45;88.91;97527.02;1881988;76;22180;-63
2021/05/18 11:47:11;;;;;;;11.15;5.95;;;;;;;17.47;89.03;97533.03;1866357;76;22138;-65
2021/05/18 11:49:47;;;;;;;12.23;6.15;;;;;;;17.42;89.49;97525.84;1854483;76;27940;-64
2021/05/18 11:52:22;;;;;;;18.62;6.58;;;;;;;17.51;89.90;97516.83;1870465;76;22156;-64
2021/05/18 11:54:57;;;;;;;14.18;6.50;;;;;;;17.58;90.05;97521.73;1854594;76;27909;-65
2021/05/18 11:57:36;;;;;;;16.42;6.95;;;;;;;17.72;90.44;97528.98;1873753;76;28002;-65
2021/05/18 12:00:19;;;;;;;17.30;9.15;;;;;;;17.81;90.47;97529.11;1870407;76;22165;-65
2021/05/18 12:03:09;;;;;;;9.33;4.37;;;;;;;17.63;88.15;97538.94;1889765;76;22175;-64
2021/05/18 12:05:56;;;;;;;6.03;3.22;;;;;;;17.63;87.15;97537.20;1868267;76;22140;-64
2021/05/18 12:08:38;;;;;;;6.72;2.50;;;;;;;17.47;85.97;97536.95;1889784;76;22150;-62
2021/05/18 12:11:20;;;;;;;6.55;2.33;;;;;;;17.33;82.35;97536.66;1889878;76;22139;-65
2021/05/18 12:14:10;;;;;;;6.42;2.40;;;;;;;17.20;82.06;97540.20;1791294;80;21130;-63
2021/05/18 12:16:53;;;;;;;4.60;2.17;;;;;;;17.18;82.61;97546.37;1889765;76;22270;-65
2021/05/18 12:19:27;;;;;;;31.70;20.52;;;;;;;17.06;81.28;97538.10;1873787;76;27924;-63
2021/05/18 12:22:13;;;;;;;8.83;5.28;;;;;;;17.00;81.50;97539.66;1827489;78;21303;-63
2021/05/18 12:24:48;;;;;;;5.35;3.35;;;;;;;17.06;82.05;97535.95;1870625;76;22600;-63
2021/05/18 12:27:24;;;;;;;5.33;2.65;;;;;;;17.06;81.20;97530.28;1854523;76;28331;-64
2021/05/18 12:29:59;;;;;;;6.00;3.08;;;;;;;17.22;81.94;97527.09;1854593;76;28310;-64
2021/05/18 12:32:36;;;;;;;6.95;2.83;;;;;;;17.35;82.35;97537.42;1870330;76;20351;-64
2021/05/18 12:35:22;;;;;;;16.17;6.45;;;;;;;17.31;83.25;97535.86;1869574;76;22192;-64
2021/05/18 12:37:58;;;;;;;16.42;9.40;;;;;;;17.35;83.71;97529.60;1870438;76;22164;-65
2021/05/18 12:40:36;;;;;;;9.28;3.10;;;;;;;17.45;84.05;97532.23;1854473;76;28317;-65
2021/05/18 12:43:14;;;;;;;8.63;3.50;;;;;;;17.54;83.98;97525.36;1854861;76;27925;-64
2021/05/18 12:46:11;;;;;;;10.15;3.90;;;;;;;17.64;84.20;97534.13;1873427;76;28025;-67
2021/05/18 12:48:47;;;;;;;12.23;4.40;;;;;;;17.73;84.54;97535.05;1828227;76;22624;-65
2021/05/18 12:51:27;;;;;;;9.83;4.03;;;;;;;17.76;84.94;97534.48;1870424;76;22168;-66
2021/05/18 12:54:04;;;;;;;8.88;4.67;;;;;;;17.73;85.59;97545.48;1870538;76;22167;-64
2021/05/18 12:56:40;;;;;;;13.28;6.75;;;;;;;17.52;86.20;97542.83;1870339;76;22630;-62
2021/05/18 12:59:16;;;;;;;11.43;4.53;;;;;;;17.41;87.08;97537.20;1870449;76;22112;-64
2021/05/18 13:01:52;;;;;;;8.48;4.62;;;;;;;17.36;87.75;97536.07;1854465;76;27926;-66
2021/05/18 13:04:38;;;;;;;7.65;4.47;;;;;;;17.33;88.44;97536.66;1827546;78;21130;-64
2021/05/18 13:07:14;;;;;;;9.43;5.00;;;;;;;17.33;88.00;97533.59;1870583;76;22216;-63
2021/05/18 13:10:07;;;;;;;36.13;22.80;;;;;;;17.27;87.42;97531.66;1889939;76;22195;-63
2021/05/18 13:12:43;;;;;;;12.65;7.00;;;;;;;17.31;88.27;97528.88;1870497;76;22153;-62
2021/05/18 13:15:22;;;;;;;45.10;31.75;;;;;;;17.48;88.74;97524.78;1870527;76;22125;-65
2021/05/18 13:18:00;;;;;;;13.60;7.95;;;;;;;17.70;87.36;97516.91;1866330;76;22140;-64
2021/05/18 13:20:54;;;;;;;16.10;9.93;;;;;;;17.85;86.77;97524.14;1795183;80;21110;-65
2021/05/18 13:23:56;;;;;;;10.20;5.42;;;;;;;18.14;86.14;97520.33;1869660;76;22156;-66
2021/05/18 13:26:40;;;;;;;17.02;10.53;;;;;;;18.18;84.04;97523.64;1846367;75;22668;-63
2021/05/18 13:29:24;;;;;;;18.73;11.93;;;;;;;18.00;83.45;97527.41;1870434;76;22181;-65
2021/05/18 13:32:00;;;;;;;9.08;5.10;;;;;;;17.98;83.44;97510.13;1854501;76;27901;-63
2021/05/18 13:34:35;;;;;;;9.45;4.92;;;;;;;18.10;83.68;97500.47;1873711;76;28365;-63
2021/05/18 13:37:10;;;;;;;10.98;5.60;;;;;;;18.33;81.93;97501.24;1860507;76;22171;-65
2021/05/18 13:39:46;;;;;;;9.70;6.72;;;;;;;18.38;81.54;97497.50;1847859;76;28033;-65
2021/05/18 13:42:20;;;;;;;11.38;5.03;;;;;;;18.41;81.37;97508.27;1889843;76;22156;-64
2021/05/18 13:44:55;;;;;;;9.50;5.28;;;;;;;17.98;82.33;97511.42;1870612;76;22192;-64
2021/05/18 13:47:31;;;;;;;8.55;4.90;;;;;;;18.03;82.25;97506.02;1870458;76;22164;-63
2021/05/18 13:50:10;;;;;;;11.55;8.05;;;;;;;18.13;82.78;97504.71;1870418;76;22175;-63
2021/05/18 13:52:46;;;;;;;18.27;10.43;;;;;;;18.32;82.48;97508.66;1870337;76;22141;-63
2021/05/18 13:55:34;;;;;;;18.48;12.00;;;;;;;18.43;82.38;97525.58;1817939;78;21144;-62
2021/05/18 13:58:09;;;;;;;47.58;33.30;;;;;;;18.43;82.55;97530.80;1870521;76;22562;-64
2021/05/18 14:00:45;;;;;;;12.90;6.95;;;;;;;18.40;82.36;97530.94;1870603;76;22275;-64
2021/05/18 14:03:33;;;;;;;13.28;8.15;;;;;;;18.25;81.90;97530.77;1827744;78;21166;-65
2021/05/18 14:06:08;;;;;;;14.33;8.30;;;;;;;18.22;82.68;97517.38;1870561;76;22152;-66
2021/05/18 14:08:43;;;;;;;21.57;13.60;;;;;;;18.25;83.22;97516.41;1889820;76;22228;-66
2021/05/18 14:11:21;;;;;;;11.22;6.28;;;;;;;18.29;83.43;97514.03;1854792;76;27938;-65
2021/05/18 14:13:56;;;;;;;13.38;8.65;;;;;;;18.40;83.96;97504.82;1870619;76;22153;-63
2021/05/18 14:16:30;;;;;;;15.32;7.80;;;;;;;18.64;84.73;97496.34;1870626;76;22575;-63
2021/05/18 14:19:05;;;;;;;11.45;7.62;;;;;;;18.70;84.63;97490.44;1847836;76;22189;-64
2021/05/18 14:21:41;;;;;;;10.82;8.15;;;;;;;18.90;82.63;97492.18;1844425;76;28028;-66
2021/05/18 14:24:24;;;;;;;22.50;15.70;;;;;;;19.10;81.74;97489.48;1870776;76;22149;-65
2021/05/18 14:26:58;;;;;;;11.95;8.00;;;;;;;19.13;81.39;97484.09;1870599;76;22599;-64
2021/05/18 14:29:35;;;;;;;46.98;31.17;;;;;;;19.08;81.57;97497.85;1854520;76;27949;-64
2021/05/18 14:32:09;;;;;;;20.68;13.05;;;;;;;19.00;80.81;97493.45;1889832;76;22140;-64
2021/05/18 14:34:45;;;;;;;9.18;5.60;;;;;;;19.05;78.75;97483.16;1854633;76;27934;-65
2021/05/18 14:37:20;;;;;;;8.90;5.42;;;;;;;19.27;78.17;97477.77;1870549;76;22180;-64
2021/05/18 14:40:09;;;;;;;13.85;9.65;;;;;;;19.35;78.01;97484.41;1873733;76;27897;-63
2021/05/18 14:42:51;;;;;;;26.17;19.65;;;;;;;19.38;77.36;97477.70;1854824;76;27933;-64
2021/05/18 14:56:30;;;;;;;16.60;10.80;;;;;;;18.73;79.92;97481.18;1870506;76;22245;-63
2021/05/18 14:59:05;;;;;;;25.12;11.90;;;;;;;18.62;81.29;97479.03;1889943;76;22127;-64
2021/05/18 15:01:40;;;;;;;24.32;14.10;;;;;;;18.54;81.80;97472.84;1870561;76;22209;-63
2021/05/18 15:04:16;;;;;;;27.30;14.98;;;;;;;18.53;82.20;97474.24;1854504;76;27927;-62
2021/05/18 15:06:58;;;;;;;30.37;16.23;;;;;;;18.53;82.62;97475.55;1869653;76;22284;-62
2021/05/18 15:09:39;;;;;;;30.45;15.98;;;;;;;18.53;81.82;97465.09;1852931;76;22192;-64
2021/05/18 15:12:21;;;;;;;21.95;12.68;;;;;;;18.50;81.95;97460.86;1869699;76;22595;-64
2021/05/18 15:14:56;;;;;;;22.70;12.98;;;;;;;18.56;81.92;97463.64;1870586;76;22160;-63
2021/05/18 15:17:31;;;;;;;22.07;13.28;;;;;;;18.57;82.13;97464.89;1889950;76;22140;-63
2021/05/18 15:20:18;;;;;;;22.48;12.13;;;;;;;18.50;81.85;97471.77;1791676;80;21151;-63
2021/05/18 15:22:54;;;;;;;15.50;10.28;;;;;;;18.41;81.69;97460.80;1870540;76;22137;-64
2021/05/18 15:25:29;;;;;;;18.75;10.48;;;;;;;18.32;81.62;97462.53;1889797;76;22195;-63
2021/05/18 15:28:05;;;;;;;15.55;11.18;;;;;;;18.10;82.23;97468.30;1870446;76;20101;-63
2021/05/18 15:30:39;;;;;;;16.65;12.55;;;;;;;17.89;83.23;97473.52;1889820;76;22156;-63
2021/05/18 15:33:15;;;;;;;16.25;10.25;;;;;;;17.76;85.05;97460.58;1854478;76;28034;-65
2021/05/18 15:35:51;;;;;;;15.50;9.60;;;;;;;17.71;86.19;97458.62;1854522;76;28362;-64
2021/05/18 15:38:26;;;;;;;12.07;8.43;;;;;;;17.75;86.70;97458.86;1889875;76;22127;-63
2021/05/18 15:41:02;;;;;;;13.53;9.05;;;;;;;17.73;87.18;97464.17;1854593;76;27995;-64
2021/05/18 15:43:37;;;;;;;13.58;8.75;;;;;;;17.51;87.66;97465.50;1870780;76;22113;-65
2021/05/18 15:46:13;;;;;;;15.80;8.93;;;;;;;17.56;87.80;97467.47;1854628;76;27938;-63
2021/05/18 15:48:49;;;;;;;13.05;7.03;;;;;;;17.50;87.36;97456.42;1878744;75;22198;-65
2021/05/18 15:51:30;;;;;;;17.12;9.43;;;;;;;17.40;86.26;97462.47;1869666;76;22586;-64
2021/05/18 15:54:11;;;;;;;23.12;9.23;;;;;;;17.32;85.80;97448.89;1869707;76;22121;-64
2021/05/18 15:56:47;;;;;;;18.35;9.45;;;;;;;17.22;85.33;97451.02;1873764;76;28343;-63
2021/05/18 15:59:28;;;;;;;18.98;8.18;;;;;;;17.22;85.23;97447.11;1889905;76;22188;-63
2021/05/18 16:02:04;;;;;;;17.60;8.93;;;;;;;17.20;85.04;97436.34;1870547;76;22231;-65
2021/05/18 16:04:39;;;;;;;15.65;9.53;;;;;;;17.18;84.88;97432.98;1854531;76;27927;-64
2021/05/18 16:07:18;;;;;;;17.62;8.65;;;;;;;17.22;84.65;97428.86;1870518;76;22225;-64
2021/05/18 16:09:51;;;;;;;16.02;6.35;;;;;;;17.17;83.67;97428.66;1889843;76;22611;-65
2021/05/18 16:12:37;;;;;;;19.17;8.13;;;;;;;17.06;82.67;97428.63;1861440;77;21102;-64
2021/05/18 16:15:20;;;;;;;14.33;7.60;;;;;;;17.05;82.77;97419.59;1889858;76;22165;-66
2021/05/18 16:17:55;;;;;;;16.52;7.40;;;;;;;17.03;82.90;97422.70;1870395;76;22176;-66
2021/05/18 16:20:42;;;;;;;20.20;8.03;;;;;;;16.92;82.93;97419.23;1827736;78;21135;-65
2021/05/18 16:23:18;;;;;;;83.72;53.45;;;;;;;16.95;82.74;97428.22;1870513;76;20348;-64
2021/05/18 16:25:56;;;;;;;21.77;9.78;;;;;;;16.93;82.94;97437.84;1857405;76;28048;-64
2021/05/18 16:28:44;;;;;;;21.82;9.35;;;;;;;16.93;83.08;97438.69;1827655;78;21612;-65
2021/05/18 16:31:22;;;;;;;16.60;6.83;;;;;;;16.98;83.26;97437.22;1870573;76;22156;-66
2021/05/18 16:33:56;;;;;;;19.32;8.08;;;;;;;16.92;83.53;97438.31;1829619;76;28473;-66
2021/05/18 16:36:33;;;;;;;12.95;7.40;;;;;;;16.95;83.79;97429.98;1850639;77;22171;-65
2021/05/18 16:39:09;;;;;;;12.93;7.47;;;;;;;17.00;83.94;97422.38;1870250;76;22176;-65
2021/05/18 16:41:45;;;;;;;14.30;8.10;;;;;;;17.04;84.04;97421.33;1870354;76;22140;-63
2021/05/18 16:44:22;;;;;;;15.93;8.00;;;;;;;17.06;84.21;97416.06;1873830;76;27990;-64
2021/05/18 16:46:58;;;;;;;21.65;13.68;;;;;;;17.13;84.32;97418.36;1889650;76;22176;-63
2021/05/18 16:49:34;;;;;;;28.50;17.70;;;;;;;17.10;84.53;97411.97;1870452;76;22595;-63
2021/05/18 16:52:10;;;;;;;15.28;7.97;;;;;;;17.16;84.79;97409.56;1854397;76;28060;-65
2021/05/18 16:54:45;;;;;;;17.07;8.50;;;;;;;17.25;85.04;97412.24;1823333;77;20109;-66
2021/05/18 16:57:32;;;;;;;20.43;8.83;;;;;;;17.14;85.38;97416.13;1791771;80;21146;-66
2021/05/18 17:00:11;;;;;;;18.27;8.15;;;;;;;17.13;85.83;97401.42;1873747;76;28329;-66
2021/05/18 17:02:45;;;;;;;20.10;8.33;;;;;;;17.15;86.15;97402.67;1889793;76;22560;-65
2021/05/18 17:05:21;;;;;;;25.48;11.45;;;;;;;17.13;85.85;97398.81;1873666;76;28065;-68
2021/05/18 17:07:58;;;;;;;18.80;8.53;;;;;;;17.16;85.97;97393.09;1870499;76;20097;-65
2021/05/18 17:10:37;;;;;;;23.77;9.10;;;;;;;17.08;86.09;97382.97;1870452;76;22145;-63